sensor_id;sensor_type;location;lat;lon;timestamp;P1;durP1;ratioP1;P2;durP2;ratioP2
53040;SDS011;39326;42.650;23.248;2022-10-22T00:01:25;11.07;;;10.10;;
53040;SDS011;39326;42.650;23.248;2022-10-22T00:03:52;12.27;;;11.13;;
53040;SDS011;39326;42.650;23.248;2022-10-22T00:06:18;11.37;;;10.37;;
53040;SDS011;39326;42.650;23.248;2022-10-22T00:08:45;12.17;;;11.07;;
53040;SDS011;39326;42.650;23.248;2022-10-22T00:11:12;12.43;;;11.23;;
53040;SDS011;39326;42.650;23.248;2022-10-22T00:13:39;12.17;;;11.07;;
53040;SDS011;39326;42.650;23.248;2022-10-22T00:16:06;10.63;;;9.63;;
53040;SDS011;39326;42.650;23.248;2022-10-22T00:18:32;11.43;;;9.93;;
53040;SDS011;39326;42.650;23.248;2022-10-22T00:20:58;10.73;;;9.83;;
53040;SDS011;39326;42.650;23.248;2022-10-22T00:23:24;10.47;;;9.43;;
53040;SDS011;39326;42.650;23.248;2022-10-22T00:25:51;11.90;;;10.80;;
53040;SDS011;39326;42.650;23.248;2022-10-22T00:28:18;12.43;;;11.23;;
53040;SDS011;39326;42.650;23.248;2022-10-22T00:30:44;14.23;;;12.90;;
53040;SDS011;39326;42.650;23.248;2022-10-22T00:33:10;13.63;;;12.33;;
53040;SDS011;39326;42.650;23.248;2022-10-22T00:35:36;12.83;;;11.57;;
53040;SDS011;39326;42.650;23.248;2022-10-22T00:38:01;15.57;;;14.17;;
53040;SDS011;39326;42.650;23.248;2022-10-22T00:40:27;16.70;;;15.00;;
53040;SDS011;39326;42.650;23.248;2022-10-22T00:42:54;15.53;;;14.13;;
53040;SDS011;39326;42.650;23.248;2022-10-22T00:45:21;15.23;;;13.63;;
53040;SDS011;39326;42.650;23.248;2022-10-22T00:50:46;16.37;;;14.87;;
53040;SDS011;39326;42.650;23.248;2022-10-22T00:53:28;17.60;;;15.40;;
53040;SDS011;39326;42.650;23.248;2022-10-22T00:55:59;17.73;;;16.03;;
53040;SDS011;39326;42.650;23.248;2022-10-22T00:58:27;18.20;;;16.17;;
53040;SDS011;39326;42.650;23.248;2022-10-22T01:00:56;17.27;;;15.47;;
53040;SDS011;39326;42.650;23.248;2022-10-22T01:03:22;19.20;;;17.17;;
53040;SDS011;39326;42.650;23.248;2022-10-22T01:05:54;18.33;;;16.50;;
53040;SDS011;39326;42.650;23.248;2022-10-22T01:08:44;17.87;;;16.07;;
53040;SDS011;39326;42.650;23.248;2022-10-22T01:11:14;18.27;;;15.90;;
53040;SDS011;39326;42.650;23.248;2022-10-22T01:22:01;15.00;;;13.60;;
53040;SDS011;39326;42.650;23.248;2022-10-22T01:24:35;14.97;;;11.90;;
53040;SDS011;39326;42.650;23.248;2022-10-22T01:27:14;14.20;;;12.90;;
53040;SDS011;39326;42.650;23.248;2022-10-22T01:29:57;13.30;;;12.00;;
53040;SDS011;39326;42.650;23.248;2022-10-22T01:32:28;12.73;;;11.40;;
53040;SDS011;39326;42.650;23.248;2022-10-22T01:34:59;13.80;;;12.40;;
53040;SDS011;39326;42.650;23.248;2022-10-22T01:37:29;12.80;;;11.60;;
53040;SDS011;39326;42.650;23.248;2022-10-22T01:39:58;12.33;;;11.10;;
53040;SDS011;39326;42.650;23.248;2022-10-22T01:42:26;12.63;;;11.43;;
53040;SDS011;39326;42.650;23.248;2022-10-22T01:44:51;13.13;;;11.83;;
53040;SDS011;39326;42.650;23.248;2022-10-22T01:47:23;12.17;;;10.87;;
53040;SDS011;39326;42.650;23.248;2022-10-22T01:50:02;11.70;;;10.67;;
53040;SDS011;39326;42.650;23.248;2022-10-22T02:04:04;23.40;;;21.33;;
53040;SDS011;39326;42.650;23.248;2022-10-22T02:06:37;17.67;;;16.17;;
53040;SDS011;39326;42.650;23.248;2022-10-22T02:09:07;14.20;;;12.90;;
53040;SDS011;39326;42.650;23.248;2022-10-22T02:11:34;11.77;;;10.67;;
53040;SDS011;39326;42.650;23.248;2022-10-22T02:14:01;12.27;;;11.07;;
53040;SDS011;39326;42.650;23.248;2022-10-22T02:18:58;10.93;;;9.83;;
53040;SDS011;39326;42.650;23.248;2022-10-22T02:21:31;11.73;;;10.70;;
53040;SDS011;39326;42.650;23.248;2022-10-22T02:23:57;12.90;;;11.60;;
53040;SDS011;39326;42.650;23.248;2022-10-22T02:26:33;13.57;;;12.27;;
53040;SDS011;39326;42.650;23.248;2022-10-22T02:29:34;13.07;;;11.77;;
53040;SDS011;39326;42.650;23.248;2022-10-22T02:32:11;12.87;;;11.60;;
53040;SDS011;39326;42.650;23.248;2022-10-22T02:34:42;12.27;;;11.07;;
53040;SDS011;39326;42.650;23.248;2022-10-22T02:37:10;12.10;;;11.00;;
53040;SDS011;39326;42.650;23.248;2022-10-22T02:39:37;12.97;;;11.60;;
53040;SDS011;39326;42.650;23.248;2022-10-22T02:42:04;12.47;;;11.23;;
53040;SDS011;39326;42.650;23.248;2022-10-22T02:44:30;12.93;;;11.73;;
53040;SDS011;39326;42.650;23.248;2022-10-22T02:46:56;13.73;;;12.33;;
53040;SDS011;39326;42.650;23.248;2022-10-22T02:49:23;12.33;;;11.23;;
53040;SDS011;39326;42.650;23.248;2022-10-22T02:51:49;11.37;;;10.30;;
53040;SDS011;39326;42.650;23.248;2022-10-22T02:54:15;12.63;;;11.33;;
53040;SDS011;39326;42.650;23.248;2022-10-22T02:56:42;12.30;;;11.10;;
53040;SDS011;39326;42.650;23.248;2022-10-22T02:59:07;14.50;;;13.10;;
53040;SDS011;39326;42.650;23.248;2022-10-22T03:01:33;12.80;;;11.67;;
53040;SDS011;39326;42.650;23.248;2022-10-22T03:03:59;13.97;;;12.40;;
53040;SDS011;39326;42.650;23.248;2022-10-22T03:06:25;14.33;;;12.83;;
53040;SDS011;39326;42.650;23.248;2022-10-22T03:08:51;12.33;;;11.03;;
53040;SDS011;39326;42.650;23.248;2022-10-22T03:11:17;13.33;;;12.10;;
53040;SDS011;39326;42.650;23.248;2022-10-22T03:13:43;13.53;;;12.17;;
53040;SDS011;39326;42.650;23.248;2022-10-22T03:16:09;14.13;;;12.77;;
53040;SDS011;39326;42.650;23.248;2022-10-22T03:18:35;13.57;;;12.17;;
53040;SDS011;39326;42.650;23.248;2022-10-22T03:21:07;13.17;;;12.07;;
53040;SDS011;39326;42.650;23.248;2022-10-22T03:23:40;13.77;;;11.77;;
53040;SDS011;39326;42.650;23.248;2022-10-22T03:26:07;14.87;;;12.60;;
53040;SDS011;39326;42.650;23.248;2022-10-22T03:28:35;13.23;;;12.03;;
53040;SDS011;39326;42.650;23.248;2022-10-22T03:31:02;13.17;;;11.83;;
53040;SDS011;39326;42.650;23.248;2022-10-22T03:33:29;12.40;;;11.27;;
53040;SDS011;39326;42.650;23.248;2022-10-22T03:35:55;13.63;;;12.33;;
53040;SDS011;39326;42.650;23.248;2022-10-22T03:38:21;14.17;;;12.63;;
53040;SDS011;39326;42.650;23.248;2022-10-22T03:40:47;12.80;;;11.60;;
53040;SDS011;39326;42.650;23.248;2022-10-22T03:43:14;16.70;;;11.27;;
53040;SDS011;39326;42.650;23.248;2022-10-22T03:45:41;13.17;;;11.87;;
53040;SDS011;39326;42.650;23.248;2022-10-22T03:48:07;12.33;;;11.13;;
53040;SDS011;39326;42.650;23.248;2022-10-22T03:50:33;13.63;;;12.37;;
53040;SDS011;39326;42.650;23.248;2022-10-22T03:52:59;14.20;;;12.93;;
53040;SDS011;39326;42.650;23.248;2022-10-22T03:55:25;16.87;;;13.60;;
53040;SDS011;39326;42.650;23.248;2022-10-22T03:57:51;16.07;;;14.30;;
53040;SDS011;39326;42.650;23.248;2022-10-22T04:00:17;14.83;;;13.43;;
53040;SDS011;39326;42.650;23.248;2022-10-22T04:02:43;15.37;;;14.00;;
53040;SDS011;39326;42.650;23.248;2022-10-22T04:05:10;16.57;;;14.87;;
53040;SDS011;39326;42.650;23.248;2022-10-22T04:07:35;16.50;;;14.80;;
53040;SDS011;39326;42.650;23.248;2022-10-22T04:10:02;18.07;;;15.80;;
53040;SDS011;39326;42.650;23.248;2022-10-22T04:12:28;15.27;;;13.87;;
53040;SDS011;39326;42.650;23.248;2022-10-22T04:14:54;16.30;;;14.67;;
53040;SDS011;39326;42.650;23.248;2022-10-22T04:17:20;18.53;;;15.80;;
53040;SDS011;39326;42.650;23.248;2022-10-22T04:19:46;15.77;;;14.10;;
53040;SDS011;39326;42.650;23.248;2022-10-22T04:22:12;16.43;;;14.47;;
53040;SDS011;39326;42.650;23.248;2022-10-22T04:24:38;15.77;;;14.17;;
53040;SDS011;39326;42.650;23.248;2022-10-22T04:27:04;16.40;;;14.70;;
53040;SDS011;39326;42.650;23.248;2022-10-22T04:29:30;15.77;;;14.27;;
53040;SDS011;39326;42.650;23.248;2022-10-22T04:31:56;14.50;;;13.07;;
53040;SDS011;39326;42.650;23.248;2022-10-22T04:34:25;13.07;;;11.87;;
53040;SDS011;39326;42.650;23.248;2022-10-22T04:36:51;11.97;;;10.77;;
53040;SDS011;39326;42.650;23.248;2022-10-22T04:39:18;12.73;;;11.43;;
53040;SDS011;39326;42.650;23.248;2022-10-22T04:41:44;14.50;;;13.20;;
53040;SDS011;39326;42.650;23.248;2022-10-22T04:44:10;14.53;;;13.03;;
53040;SDS011;39326;42.650;23.248;2022-10-22T04:46:37;12.23;;;11.03;;
53040;SDS011;39326;42.650;23.248;2022-10-22T04:49:03;11.33;;;10.27;;
53040;SDS011;39326;42.650;23.248;2022-10-22T04:51:29;12.43;;;11.13;;
53040;SDS011;39326;42.650;23.248;2022-10-22T04:53:56;13.27;;;11.97;;
53040;SDS011;39326;42.650;23.248;2022-10-22T04:56:23;12.23;;;11.00;;
53040;SDS011;39326;42.650;23.248;2022-10-22T04:58:52;13.00;;;11.70;;
53040;SDS011;39326;42.650;23.248;2022-10-22T05:01:24;13.53;;;11.50;;
53040;SDS011;39326;42.650;23.248;2022-10-22T05:03:54;15.40;;;13.27;;
53040;SDS011;39326;42.650;23.248;2022-10-22T05:06:21;16.10;;;14.57;;
53040;SDS011;39326;42.650;23.248;2022-10-22T05:08:50;15.50;;;14.00;;
53040;SDS011;39326;42.650;23.248;2022-10-22T05:11:19;15.00;;;13.60;;
53040;SDS011;39326;42.650;23.248;2022-10-22T05:13:46;16.27;;;14.57;;
53040;SDS011;39326;42.650;23.248;2022-10-22T05:16:13;17.10;;;14.13;;
53040;SDS011;39326;42.650;23.248;2022-10-22T05:18:40;15.50;;;14.10;;
53040;SDS011;39326;42.650;23.248;2022-10-22T05:21:08;15.50;;;14.00;;
53040;SDS011;39326;42.650;23.248;2022-10-22T05:23:35;16.43;;;14.73;;
53040;SDS011;39326;42.650;23.248;2022-10-22T05:26:02;18.23;;;16.33;;
53040;SDS011;39326;42.650;23.248;2022-10-22T05:28:28;18.77;;;16.97;;
53040;SDS011;39326;42.650;23.248;2022-10-22T05:30:54;19.47;;;17.50;;
53040;SDS011;39326;42.650;23.248;2022-10-22T05:33:21;18.03;;;16.23;;
53040;SDS011;39326;42.650;23.248;2022-10-22T05:35:47;19.37;;;17.37;;
53040;SDS011;39326;42.650;23.248;2022-10-22T05:38:13;20.47;;;18.40;;
53040;SDS011;39326;42.650;23.248;2022-10-22T05:40:39;19.37;;;17.47;;
53040;SDS011;39326;42.650;23.248;2022-10-22T05:43:05;18.17;;;16.47;;
53040;SDS011;39326;42.650;23.248;2022-10-22T05:45:34;21.97;;;19.77;;
53040;SDS011;39326;42.650;23.248;2022-10-22T05:48:01;22.90;;;20.67;;
53040;SDS011;39326;42.650;23.248;2022-10-22T05:50:27;21.80;;;19.63;;
53040;SDS011;39326;42.650;23.248;2022-10-22T05:52:53;26.87;;;21.87;;
53040;SDS011;39326;42.650;23.248;2022-10-22T05:55:21;21.97;;;19.80;;
53040;SDS011;39326;42.650;23.248;2022-10-22T05:57:47;22.33;;;20.17;;
53040;SDS011;39326;42.650;23.248;2022-10-22T06:00:14;23.33;;;21.03;;
53040;SDS011;39326;42.650;23.248;2022-10-22T06:02:40;21.47;;;19.37;;
53040;SDS011;39326;42.650;23.248;2022-10-22T06:05:06;22.03;;;19.60;;
53040;SDS011;39326;42.650;23.248;2022-10-22T06:07:33;23.77;;;20.50;;
53040;SDS011;39326;42.650;23.248;2022-10-22T06:10:00;22.93;;;20.53;;
53040;SDS011;39326;42.650;23.248;2022-10-22T06:12:26;21.70;;;19.40;;
53040;SDS011;39326;42.650;23.248;2022-10-22T06:14:52;23.43;;;21.00;;
53040;SDS011;39326;42.650;23.248;2022-10-22T06:17:18;24.23;;;21.70;;
53040;SDS011;39326;42.650;23.248;2022-10-22T06:19:44;22.20;;;19.90;;
53040;SDS011;39326;42.650;23.248;2022-10-22T06:22:10;20.90;;;18.47;;
53040;SDS011;39326;42.650;23.248;2022-10-22T06:24:36;22.90;;;20.57;;
53040;SDS011;39326;42.650;23.248;2022-10-22T06:27:01;21.80;;;19.50;;
53040;SDS011;39326;42.650;23.248;2022-10-22T06:29:28;21.47;;;19.37;;
53040;SDS011;39326;42.650;23.248;2022-10-22T06:31:54;22.77;;;20.47;;
53040;SDS011;39326;42.650;23.248;2022-10-22T06:34:20;24.50;;;21.20;;
53040;SDS011;39326;42.650;23.248;2022-10-22T06:36:46;24.97;;;22.53;;
53040;SDS011;39326;42.650;23.248;2022-10-22T06:39:13;22.97;;;20.77;;
53040;SDS011;39326;42.650;23.248;2022-10-22T06:41:40;23.97;;;21.50;;
53040;SDS011;39326;42.650;23.248;2022-10-22T06:44:06;23.50;;;21.10;;
53040;SDS011;39326;42.650;23.248;2022-10-22T06:46:32;24.03;;;21.73;;
53040;SDS011;39326;42.650;23.248;2022-10-22T06:48:59;25.37;;;22.70;;
53040;SDS011;39326;42.650;23.248;2022-10-22T06:51:27;23.87;;;21.53;;
53040;SDS011;39326;42.650;23.248;2022-10-22T06:53:54;24.37;;;21.93;;
53040;SDS011;39326;42.650;23.248;2022-10-22T06:56:21;23.87;;;21.50;;
53040;SDS011;39326;42.650;23.248;2022-10-22T06:58:50;24.53;;;22.03;;
53040;SDS011;39326;42.650;23.248;2022-10-22T07:01:17;25.93;;;23.40;;
53040;SDS011;39326;42.650;23.248;2022-10-22T07:03:45;24.43;;;22.13;;
53040;SDS011;39326;42.650;23.248;2022-10-22T07:06:12;24.40;;;22.07;;
53040;SDS011;39326;42.650;23.248;2022-10-22T07:08:39;27.27;;;24.77;;
53040;SDS011;39326;42.650;23.248;2022-10-22T07:11:07;27.23;;;24.43;;
53040;SDS011;39326;42.650;23.248;2022-10-22T07:13:45;26.50;;;24.10;;
53040;SDS011;39326;42.650;23.248;2022-10-22T07:16:11;25.97;;;23.20;;
53040;SDS011;39326;42.650;23.248;2022-10-22T07:18:37;24.07;;;21.87;;
53040;SDS011;39326;42.650;23.248;2022-10-22T07:21:04;24.77;;;22.37;;
53040;SDS011;39326;42.650;23.248;2022-10-22T07:23:31;23.73;;;21.20;;
53040;SDS011;39326;42.650;23.248;2022-10-22T07:25:57;22.40;;;20.17;;
53040;SDS011;39326;42.650;23.248;2022-10-22T07:28:23;24.90;;;21.47;;
53040;SDS011;39326;42.650;23.248;2022-10-22T07:30:49;23.93;;;21.47;;
53040;SDS011;39326;42.650;23.248;2022-10-22T07:33:15;23.30;;;21.20;;
53040;SDS011;39326;42.650;23.248;2022-10-22T07:35:41;22.57;;;20.27;;
53040;SDS011;39326;42.650;23.248;2022-10-22T07:38:07;24.63;;;22.00;;
53040;SDS011;39326;42.650;23.248;2022-10-22T07:40:34;24.33;;;21.87;;
53040;SDS011;39326;42.650;23.248;2022-10-22T07:43:00;26.50;;;23.90;;
53040;SDS011;39326;42.650;23.248;2022-10-22T07:45:27;25.37;;;22.83;;
53040;SDS011;39326;42.650;23.248;2022-10-22T07:47:53;27.73;;;25.03;;
53040;SDS011;39326;42.650;23.248;2022-10-22T07:50:18;27.80;;;24.93;;
53040;SDS011;39326;42.650;23.248;2022-10-22T07:52:45;28.20;;;25.30;;
53040;SDS011;39326;42.650;23.248;2022-10-22T07:55:11;27.23;;;24.43;;
53040;SDS011;39326;42.650;23.248;2022-10-22T07:57:37;27.53;;;24.60;;
53040;SDS011;39326;42.650;23.248;2022-10-22T08:00:05;27.40;;;24.53;;
53040;SDS011;39326;42.650;23.248;2022-10-22T08:02:32;25.87;;;23.30;;
53040;SDS011;39326;42.650;23.248;2022-10-22T08:04:58;23.73;;;21.20;;
53040;SDS011;39326;42.650;23.248;2022-10-22T08:07:24;26.47;;;23.70;;
53040;SDS011;39326;42.650;23.248;2022-10-22T08:09:50;26.77;;;24.17;;
53040;SDS011;39326;42.650;23.248;2022-10-22T08:12:17;25.07;;;22.50;;
53040;SDS011;39326;42.650;23.248;2022-10-22T08:14:43;24.77;;;22.23;;
53040;SDS011;39326;42.650;23.248;2022-10-22T08:17:09;24.10;;;21.87;;
53040;SDS011;39326;42.650;23.248;2022-10-22T08:19:35;26.20;;;23.57;;
53040;SDS011;39326;42.650;23.248;2022-10-22T08:22:01;22.70;;;20.60;;
53040;SDS011;39326;42.650;23.248;2022-10-22T08:24:27;24.50;;;22.17;;
53040;SDS011;39326;42.650;23.248;2022-10-22T08:26:53;23.60;;;21.23;;
53040;SDS011;39326;42.650;23.248;2022-10-22T08:29:21;22.57;;;20.57;;
53040;SDS011;39326;42.650;23.248;2022-10-22T08:31:48;22.47;;;20.30;;
53040;SDS011;39326;42.650;23.248;2022-10-22T08:34:14;23.13;;;20.87;;
53040;SDS011;39326;42.650;23.248;2022-10-22T08:36:41;21.40;;;19.43;;
53040;SDS011;39326;42.650;23.248;2022-10-22T08:39:07;23.20;;;20.77;;
53040;SDS011;39326;42.650;23.248;2022-10-22T08:41:38;22.10;;;19.97;;
53040;SDS011;39326;42.650;23.248;2022-10-22T08:49:30;23.47;;;20.97;;
53040;SDS011;39326;42.650;23.248;2022-10-22T08:51:58;22.33;;;20.23;;
53040;SDS011;39326;42.650;23.248;2022-10-22T09:05:15;23.07;;;20.67;;
53040;SDS011;39326;42.650;23.248;2022-10-22T09:07:56;21.60;;;19.53;;
53040;SDS011;39326;42.650;23.248;2022-10-22T09:10:23;21.87;;;19.73;;
53040;SDS011;39326;42.650;23.248;2022-10-22T09:12:53;23.03;;;20.77;;
53040;SDS011;39326;42.650;23.248;2022-10-22T09:15:19;22.05;;;19.77;;
53040;SDS011;39326;42.650;23.248;2022-10-22T09:20:31;22.60;;;20.50;;
53040;SDS011;39326;42.650;23.248;2022-10-22T09:25:49;21.67;;;19.52;;
53040;SDS011;39326;42.650;23.248;2022-10-22T09:28:16;22.25;;;19.92;;
53040;SDS011;39326;42.650;23.248;2022-10-22T09:30:42;19.60;;;17.70;;
53040;SDS011;39326;42.650;23.248;2022-10-22T09:35:43;18.77;;;17.08;;
53040;SDS011;39326;42.650;23.248;2022-10-22T09:38:13;21.77;;;19.65;;
53040;SDS011;39326;42.650;23.248;2022-10-22T09:40:44;21.60;;;19.50;;
53040;SDS011;39326;42.650;23.248;2022-10-22T09:43:16;22.73;;;20.52;;
53040;SDS011;39326;42.650;23.248;2022-10-22T09:45:42;21.60;;;18.83;;
53040;SDS011;39326;42.650;23.248;2022-10-22T09:55:41;22.13;;;19.90;;
53040;SDS011;39326;42.650;23.248;2022-10-22T09:58:09;21.25;;;19.02;;
53040;SDS011;39326;42.650;23.248;2022-10-22T10:00:37;22.10;;;19.90;;
53040;SDS011;39326;42.650;23.248;2022-10-22T10:03:05;29.73;;;21.33;;
53040;SDS011;39326;42.650;23.248;2022-10-22T10:05:31;22.00;;;19.90;;
53040;SDS011;39326;42.650;23.248;2022-10-22T10:08:07;21.48;;;19.33;;
53040;SDS011;39326;42.650;23.248;2022-10-22T10:10:53;23.60;;;21.00;;
53040;SDS011;39326;42.650;23.248;2022-10-22T10:15:54;24.38;;;22.02;;
53040;SDS011;39326;42.650;23.248;2022-10-22T10:26:20;21.80;;;19.80;;
53040;SDS011;39326;42.650;23.248;2022-10-22T10:39:29;21.60;;;19.38;;
53040;SDS011;39326;42.650;23.248;2022-10-22T10:45:01;22.27;;;20.10;;
53040;SDS011;39326;42.650;23.248;2022-10-22T10:48:09;23.98;;;21.63;;
53040;SDS011;39326;42.650;23.248;2022-10-22T10:50:55;21.45;;;19.50;;
53040;SDS011;39326;42.650;23.248;2022-10-22T10:56:40;22.45;;;20.10;;
53040;SDS011;39326;42.650;23.248;2022-10-22T10:59:15;19.92;;;17.83;;
53040;SDS011;39326;42.650;23.248;2022-10-22T11:04:23;19.52;;;17.52;;
53040;SDS011;39326;42.650;23.248;2022-10-22T11:06:56;19.13;;;17.15;;
53040;SDS011;39326;42.650;23.248;2022-10-22T11:09:27;21.70;;;17.70;;
53040;SDS011;39326;42.650;23.248;2022-10-22T11:12:01;19.20;;;17.50;;
53040;SDS011;39326;42.650;23.248;2022-10-22T11:14:53;18.00;;;16.40;;
53040;SDS011;39326;42.650;23.248;2022-10-22T11:17:23;19.73;;;17.50;;
53040;SDS011;39326;42.650;23.248;2022-10-22T11:20:00;19.10;;;17.50;;
53040;SDS011;39326;42.650;23.248;2022-10-22T11:22:44;21.13;;;19.00;;
53040;SDS011;39326;42.650;23.248;2022-10-22T11:25:16;21.20;;;19.30;;
53040;SDS011;39326;42.650;23.248;2022-10-22T11:27:54;20.30;;;18.05;;
53040;SDS011;39326;42.650;23.248;2022-10-22T11:30:27;21.35;;;19.08;;
53040;SDS011;39326;42.650;23.248;2022-10-22T11:33:00;19.60;;;17.77;;
53040;SDS011;39326;42.650;23.248;2022-10-22T11:35:33;20.65;;;18.42;;
53040;SDS011;39326;42.650;23.248;2022-10-22T11:38:03;20.02;;;17.60;;
53040;SDS011;39326;42.650;23.248;2022-10-22T11:40:34;20.38;;;18.35;;
53040;SDS011;39326;42.650;23.248;2022-10-22T11:43:04;19.73;;;17.92;;
53040;SDS011;39326;42.650;23.248;2022-10-22T11:53:32;20.20;;;17.98;;
53040;SDS011;39326;42.650;23.248;2022-10-22T11:56:20;18.20;;;16.33;;
53040;SDS011;39326;42.650;23.248;2022-10-22T11:58:49;22.20;;;17.35;;
53040;SDS011;39326;42.650;23.248;2022-10-22T12:01:28;18.73;;;16.85;;
53040;SDS011;39326;42.650;23.248;2022-10-22T12:04:16;18.92;;;16.98;;
53040;SDS011;39326;42.650;23.248;2022-10-22T12:06:52;19.45;;;17.48;;
53040;SDS011;39326;42.650;23.248;2022-10-22T12:09:23;19.70;;;16.05;;
53040;SDS011;39326;42.650;23.248;2022-10-22T12:11:54;18.85;;;16.88;;
53040;SDS011;39326;42.650;23.248;2022-10-22T12:14:49;17.48;;;15.65;;
53040;SDS011;39326;42.650;23.248;2022-10-22T12:17:17;18.33;;;16.42;;
53040;SDS011;39326;42.650;23.248;2022-10-22T12:19:46;18.30;;;16.23;;
53040;SDS011;39326;42.650;23.248;2022-10-22T12:24:54;18.42;;;16.40;;
53040;SDS011;39326;42.650;23.248;2022-10-22T12:27:25;16.50;;;14.63;;
53040;SDS011;39326;42.650;23.248;2022-10-22T12:29:58;17.42;;;15.60;;
53040;SDS011;39326;42.650;23.248;2022-10-22T12:32:35;17.88;;;15.98;;
53040;SDS011;39326;42.650;23.248;2022-10-22T12:35:03;15.27;;;13.77;;
53040;SDS011;39326;42.650;23.248;2022-10-22T12:37:35;20.98;;;15.18;;
53040;SDS011;39326;42.650;23.248;2022-10-22T12:40:09;16.88;;;14.52;;
53040;SDS011;39326;42.650;23.248;2022-10-22T12:42:57;14.57;;;13.05;;
53040;SDS011;39326;42.650;23.248;2022-10-22T12:45:32;14.38;;;13.07;;
53040;SDS011;39326;42.650;23.248;2022-10-22T12:48:00;13.30;;;12.00;;
53040;SDS011;39326;42.650;23.248;2022-10-22T12:50:33;14.80;;;13.27;;
53040;SDS011;39326;42.650;23.248;2022-10-22T12:53:04;14.00;;;12.63;;
53040;SDS011;39326;42.650;23.248;2022-10-22T12:55:31;14.15;;;12.65;;
53040;SDS011;39326;42.650;23.248;2022-10-22T12:57:58;13.98;;;12.57;;
53040;SDS011;39326;42.650;23.248;2022-10-22T13:00:26;15.10;;;13.63;;
53040;SDS011;39326;42.650;23.248;2022-10-22T13:02:57;13.70;;;12.18;;
53040;SDS011;39326;42.650;23.248;2022-10-22T13:05:25;13.68;;;12.25;;
53040;SDS011;39326;42.650;23.248;2022-10-22T13:07:53;16.98;;;13.85;;
53040;SDS011;39326;42.650;23.248;2022-10-22T13:10:31;14.70;;;13.13;;
53040;SDS011;39326;42.650;23.248;2022-10-22T13:12:58;14.43;;;13.02;;
53040;SDS011;39326;42.650;23.248;2022-10-22T13:18:04;13.32;;;12.13;;
53040;SDS011;39326;42.650;23.248;2022-10-22T13:20:54;16.63;;;12.55;;
53040;SDS011;39326;42.650;23.248;2022-10-22T13:23:23;14.90;;;12.98;;
53040;SDS011;39326;42.650;23.248;2022-10-22T13:26:00;13.57;;;12.30;;
53040;SDS011;39326;42.650;23.248;2022-10-22T13:28:28;14.55;;;13.15;;
53040;SDS011;39326;42.650;23.248;2022-10-22T13:30:56;13.70;;;12.30;;
53040;SDS011;39326;42.650;23.248;2022-10-22T13:33:33;13.98;;;12.38;;
53040;SDS011;39326;42.650;23.248;2022-10-22T13:36:02;16.05;;;12.93;;
53040;SDS011;39326;42.650;23.248;2022-10-22T13:38:28;13.25;;;11.50;;
53040;SDS011;39326;42.650;23.248;2022-10-22T13:40:54;13.85;;;11.50;;
53040;SDS011;39326;42.650;23.248;2022-10-22T13:43:21;15.48;;;12.23;;
53040;SDS011;39326;42.650;23.248;2022-10-22T13:45:47;13.63;;;11.93;;
53040;SDS011;39326;42.650;23.248;2022-10-22T13:48:19;15.98;;;13.23;;
53040;SDS011;39326;42.650;23.248;2022-10-22T13:50:48;15.70;;;13.32;;
53040;SDS011;39326;42.650;23.248;2022-10-22T13:53:15;12.88;;;11.63;;
53040;SDS011;39326;42.650;23.248;2022-10-22T13:55:44;15.95;;;12.30;;
53040;SDS011;39326;42.650;23.248;2022-10-22T13:58:11;16.92;;;13.05;;
53040;SDS011;39326;42.650;23.248;2022-10-22T14:00:38;16.85;;;15.07;;
53040;SDS011;39326;42.650;23.248;2022-10-22T14:03:09;22.73;;;19.85;;
53040;SDS011;39326;42.650;23.248;2022-10-22T14:05:36;20.55;;;17.75;;
53040;SDS011;39326;42.650;23.248;2022-10-22T14:08:02;16.27;;;14.65;;
53040;SDS011;39326;42.650;23.248;2022-10-22T14:10:33;14.77;;;12.00;;
53040;SDS011;39326;42.650;23.248;2022-10-22T14:12:59;13.80;;;12.05;;
53040;SDS011;39326;42.650;23.248;2022-10-22T14:15:26;15.05;;;12.27;;
53040;SDS011;39326;42.650;23.248;2022-10-22T14:17:53;18.77;;;12.80;;
53040;SDS011;39326;42.650;23.248;2022-10-22T14:20:23;16.52;;;12.25;;
53040;SDS011;39326;42.650;23.248;2022-10-22T14:22:52;12.90;;;11.52;;
53040;SDS011;39326;42.650;23.248;2022-10-22T14:25:19;16.45;;;10.35;;
53040;SDS011;39326;42.650;23.248;2022-10-22T14:27:47;13.38;;;10.63;;
53040;SDS011;39326;42.650;23.248;2022-10-22T14:30:14;13.52;;;10.00;;
53040;SDS011;39326;42.650;23.248;2022-10-22T14:32:41;10.52;;;9.00;;
53040;SDS011;39326;42.650;23.248;2022-10-22T14:35:09;10.73;;;8.30;;
53040;SDS011;39326;42.650;23.248;2022-10-22T14:37:37;8.88;;;7.85;;
53040;SDS011;39326;42.650;23.248;2022-10-22T14:40:04;9.95;;;7.90;;
53040;SDS011;39326;42.650;23.248;2022-10-22T14:42:30;11.55;;;7.85;;
53040;SDS011;39326;42.650;23.248;2022-10-22T14:45:03;12.40;;;7.55;;
53040;SDS011;39326;42.650;23.248;2022-10-22T14:47:29;9.43;;;8.45;;
53040;SDS011;39326;42.650;23.248;2022-10-22T14:49:56;10.75;;;8.60;;
53040;SDS011;39326;42.650;23.248;2022-10-22T14:52:21;13.48;;;10.15;;
53040;SDS011;39326;42.650;23.248;2022-10-22T14:54:47;16.13;;;10.70;;
53040;SDS011;39326;42.650;23.248;2022-10-22T14:57:13;27.73;;;20.20;;
53040;SDS011;39326;42.650;23.248;2022-10-22T14:59:40;17.95;;;14.07;;
53040;SDS011;39326;42.650;23.248;2022-10-22T15:02:09;17.77;;;11.60;;
53040;SDS011;39326;42.650;23.248;2022-10-22T15:04:38;15.77;;;10.40;;
53040;SDS011;39326;42.650;23.248;2022-10-22T15:07:04;13.02;;;11.38;;
53040;SDS011;39326;42.650;23.248;2022-10-22T15:09:30;16.40;;;10.90;;
53040;SDS011;39326;42.650;23.248;2022-10-22T15:11:56;12.30;;;9.73;;
53040;SDS011;39326;42.650;23.248;2022-10-22T15:14:22;10.77;;;9.20;;
53040;SDS011;39326;42.650;23.248;2022-10-22T15:16:48;10.75;;;8.50;;
53040;SDS011;39326;42.650;23.248;2022-10-22T15:19:14;11.18;;;7.45;;
53040;SDS011;39326;42.650;23.248;2022-10-22T15:21:40;9.25;;;7.90;;
53040;SDS011;39326;42.650;23.248;2022-10-22T15:24:06;10.10;;;8.07;;
53040;SDS011;39326;42.650;23.248;2022-10-22T15:26:33;11.80;;;8.40;;
53040;SDS011;39326;42.650;23.248;2022-10-22T15:29:00;11.20;;;9.88;;
53040;SDS011;39326;42.650;23.248;2022-10-22T15:31:40;12.27;;;9.40;;
53040;SDS011;39326;42.650;23.248;2022-10-22T15:34:29;9.40;;;8.10;;
53040;SDS011;39326;42.650;23.248;2022-10-22T15:36:57;10.77;;;8.00;;
53040;SDS011;39326;42.650;23.248;2022-10-22T15:39:25;10.43;;;7.72;;
53040;SDS011;39326;42.650;23.248;2022-10-22T15:41:51;11.10;;;8.10;;
53040;SDS011;39326;42.650;23.248;2022-10-22T15:44:19;10.73;;;7.20;;
53040;SDS011;39326;42.650;23.248;2022-10-22T15:46:46;9.23;;;8.30;;
53040;SDS011;39326;42.650;23.248;2022-10-22T15:49:12;10.40;;;8.07;;
53040;SDS011;39326;42.650;23.248;2022-10-22T15:51:39;13.27;;;7.53;;
53040;SDS011;39326;42.650;23.248;2022-10-22T15:54:05;10.13;;;7.35;;
53040;SDS011;39326;42.650;23.248;2022-10-22T15:56:31;7.77;;;6.97;;
53040;SDS011;39326;42.650;23.248;2022-10-22T15:58:58;9.10;;;7.37;;
53040;SDS011;39326;42.650;23.248;2022-10-22T16:01:30;8.17;;;7.33;;